createdAt,value
2022-12-12T00:00:37.190Z,21.20
2022-12-12T00:03:05.247Z,18.55
2022-12-12T00:05:32.642Z,21.67
2022-12-12T00:07:59.940Z,19.80
2022-12-12T00:10:27.680Z,15.82
2022-12-12T00:12:54.912Z,14.85
2022-12-12T00:15:22.307Z,22.67
2022-12-12T00:17:49.525Z,16.23
2022-12-12T00:20:16.960Z,17.63
2022-12-12T00:22:44.155Z,17.85
2022-12-12T00:25:12.238Z,17.80
2022-12-12T00:27:39.730Z,18.55
2022-12-12T00:30:08.304Z,18.40
2022-12-12T00:32:35.585Z,17.02
2022-12-12T00:35:02.917Z,19.88
2022-12-12T00:37:30.280Z,14.18
2022-12-12T00:39:57.946Z,17.42
2022-12-12T00:42:27.637Z,14.82
2022-12-12T00:44:55.063Z,13.55
2022-12-12T00:47:22.495Z,15.88
2022-12-12T00:49:49.732Z,13.98
2022-12-12T00:52:19.827Z,24.48
2022-12-12T00:54:47.124Z,14.18
2022-12-12T00:57:14.487Z,16.17
2022-12-12T00:59:41.896Z,22.88
2022-12-12T01:02:09.384Z,18.42
2022-12-12T01:04:36.606Z,16.73
2022-12-12T01:07:03.933Z,17.33
2022-12-12T01:09:31.248Z,27.38
2022-12-12T01:11:58.468Z,23.05
2022-12-12T01:14:25.856Z,22.95
2022-12-12T01:16:53.149Z,20.10
2022-12-12T01:19:20.468Z,22.85
2022-12-12T01:21:47.888Z,22.02
2022-12-12T01:24:15.142Z,22.75
2022-12-12T01:26:42.456Z,37.97
2022-12-12T01:29:09.720Z,38.20
2022-12-12T01:31:37.047Z,43.22
2022-12-12T01:34:04.434Z,20.42
2022-12-12T01:36:31.735Z,22.33
2022-12-12T01:39:00.581Z,22.38
2022-12-12T01:41:27.899Z,27.20
2022-12-12T01:43:55.755Z,20.42
2022-12-12T01:46:34.067Z,22.92
2022-12-12T01:49:24.245Z,26.75
2022-12-12T01:51:56.694Z,32.53
2022-12-12T01:54:29.059Z,25.90
2022-12-12T01:56:59.076Z,28.67
2022-12-12T01:59:28.220Z,22.42
2022-12-12T02:01:56.891Z,22.02
2022-12-12T02:04:26.339Z,27.85
2022-12-12T02:06:55.178Z,17.83
2022-12-12T02:09:25.116Z,24.70
2022-12-12T02:11:55.822Z,19.05
2022-12-12T02:14:30.147Z,20.60
2022-12-12T02:17:24.912Z,22.25
2022-12-12T02:20:29.587Z,28.63
2022-12-12T02:23:16.088Z,23.90
2022-12-12T02:26:10.836Z,18.70
2022-12-12T02:28:52.910Z,23.38
2022-12-12T02:31:22.855Z,22.25
2022-12-12T02:33:59.359Z,24.52
2022-12-12T02:37:01.837Z,26.70
2022-12-12T02:40:15.467Z,25.65
2022-12-12T02:43:11.444Z,27.60
2022-12-12T02:45:45.564Z,29.65
2022-12-12T02:48:16.569Z,24.30
2022-12-12T02:50:44.907Z,26.80
2022-12-12T02:53:12.221Z,22.75
2022-12-12T02:55:39.481Z,29.77
2022-12-12T02:58:07.022Z,26.95
2022-12-12T03:00:45.304Z,23.92
2022-12-12T03:03:40.211Z,23.70
2022-12-12T03:06:57.780Z,24.60
2022-12-12T03:09:34.692Z,23.35
2022-12-12T03:14:52.204Z,26.25
2022-12-12T03:17:25.351Z,27.80
2022-12-12T03:20:21.072Z,21.30
2022-12-12T03:23:29.611Z,23.38
2022-12-12T03:28:46.935Z,23.13
2022-12-12T03:31:18.154Z,26.77
2022-12-12T03:34:08.365Z,29.75
2022-12-12T03:36:51.255Z,21.73
2022-12-12T03:39:28.694Z,29.58
2022-12-12T03:42:02.804Z,31.20
2022-12-12T03:44:41.653Z,26.05
2022-12-12T03:47:23.393Z,28.73
2022-12-12T03:50:16.620Z,30.67
2022-12-12T03:52:54.352Z,28.27
2022-12-12T03:55:26.695Z,31.05
2022-12-12T03:58:05.289Z,30.27
2022-12-12T04:00:37.222Z,24.00
2022-12-12T04:03:44.658Z,28.70
2022-12-12T04:06:27.004Z,20.02
2022-12-12T04:09:18.011Z,27.70
2022-12-12T04:12:10.156Z,28.55
2022-12-12T04:14:53.041Z,29.13
2022-12-12T04:17:36.452Z,24.90
2022-12-12T04:21:05.790Z,32.83
2022-12-12T04:23:40.224Z,25.63
2022-12-12T04:26:34.164Z,29.38
2022-12-12T04:29:15.760Z,30.45
2022-12-12T04:32:06.915Z,30.23
2022-12-12T04:34:50.084Z,28.55
2022-12-12T04:37:25.852Z,29.48
2022-12-12T04:39:58.218Z,38.70
2022-12-12T04:42:30.561Z,33.97
2022-12-12T04:45:04.978Z,28.23
2022-12-12T04:47:35.244Z,30.50
2022-12-12T04:50:03.928Z,31.40
2022-12-12T04:52:33.805Z,39.13
2022-12-12T04:55:05.387Z,30.83
2022-12-12T04:57:47.318Z,36.47
2022-12-12T05:00:15.157Z,33.88
2022-12-12T05:03:06.171Z,32.95
2022-12-12T05:06:01.063Z,34.13
2022-12-12T05:08:36.169Z,33.90
2022-12-12T05:11:05.721Z,28.15
2022-12-12T05:13:38.696Z,32.35
2022-12-12T05:16:21.766Z,36.75
2022-12-12T05:18:49.404Z,32.55
2022-12-12T05:21:16.733Z,30.45
2022-12-12T05:23:43.966Z,37.58
2022-12-12T05:26:27.050Z,32.80
2022-12-12T05:28:54.951Z,32.28
2022-12-12T05:31:22.653Z,34.55
2022-12-12T05:33:50.348Z,33.58
2022-12-12T05:36:17.742Z,32.42
2022-12-12T05:38:45.216Z,39.58
2022-12-12T05:41:12.467Z,34.20
2022-12-12T05:43:40.035Z,34.38
2022-12-12T05:46:07.443Z,37.35
2022-12-12T05:48:34.751Z,32.08
2022-12-12T05:51:02.658Z,35.42
2022-12-12T05:53:30.339Z,37.35
2022-12-12T05:55:58.392Z,35.42
2022-12-12T05:58:25.693Z,28.38
2022-12-12T06:00:57.250Z,32.97
2022-12-12T06:03:27.571Z,33.20
2022-12-12T06:05:54.797Z,37.53
2022-12-12T06:08:25.043Z,33.08
2022-12-12T06:10:52.720Z,40.00
2022-12-12T06:13:20.007Z,32.55
2022-12-12T06:15:47.313Z,33.60
2022-12-12T06:18:14.998Z,43.85
2022-12-12T06:20:43.224Z,34.97
2022-12-12T06:23:10.446Z,41.28
2022-12-12T06:25:37.685Z,39.65
2022-12-12T06:28:05.045Z,39.70
2022-12-12T06:30:32.267Z,40.08
2022-12-12T06:32:59.543Z,41.55
2022-12-12T06:35:26.784Z,37.05
2022-12-12T06:37:54.055Z,36.55
2022-12-12T06:40:21.415Z,43.08
2022-12-12T06:42:49.074Z,40.20
2022-12-12T06:45:17.006Z,28.77
2022-12-12T06:47:44.578Z,33.38
2022-12-12T06:50:12.037Z,42.35
2022-12-12T06:52:39.336Z,45.33
2022-12-12T06:55:06.898Z,41.17
2022-12-12T06:57:34.692Z,38.28
2022-12-12T07:00:02.184Z,42.47
2022-12-12T07:02:30.403Z,36.38
2022-12-12T07:04:58.203Z,41.08
2022-12-12T07:07:25.558Z,36.03
2022-12-12T07:09:52.787Z,23.45
2022-12-12T07:12:20.274Z,36.25
2022-12-12T07:14:47.789Z,28.98
2022-12-12T07:17:14.987Z,23.52
2022-12-12T07:19:42.283Z,23.38
2022-12-12T07:22:10.677Z,26.70
2022-12-12T07:24:38.318Z,17.88
2022-12-12T07:27:06.836Z,21.80
2022-12-12T07:29:34.303Z,29.33
2022-12-12T07:32:02.251Z,28.42
2022-12-12T07:34:30.096Z,33.65
2022-12-12T07:37:02.618Z,39.28
2022-12-12T07:39:34.068Z,34.45
2022-12-12T07:42:01.279Z,36.53
2022-12-12T07:44:28.743Z,31.55
2022-12-12T07:46:59.026Z,30.17
2022-12-12T07:49:27.804Z,30.25
2022-12-12T07:51:55.353Z,29.25
2022-12-12T07:54:22.623Z,31.15
2022-12-12T07:56:50.481Z,34.90
2022-12-12T07:59:17.928Z,31.92
2022-12-12T08:01:45.233Z,30.25
2022-12-12T08:04:12.511Z,31.00
2022-12-12T08:06:39.722Z,31.08
2022-12-12T08:09:07.006Z,29.30
2022-12-12T08:11:34.336Z,27.58
2022-12-12T08:14:01.699Z,28.80
2022-12-12T08:16:29.892Z,27.77
2022-12-12T08:18:58.686Z,29.45
2022-12-12T08:21:27.301Z,27.92
2022-12-12T08:24:02.221Z,28.92
2022-12-12T08:26:30.444Z,39.95
2022-12-12T08:28:58.447Z,34.25
2022-12-12T08:31:26.106Z,33.08
2022-12-12T08:33:53.632Z,34.92
2022-12-12T08:36:24.334Z,29.67
2022-12-12T08:38:52.204Z,39.70
2022-12-12T08:41:20.148Z,23.85
2022-12-12T08:43:47.455Z,29.08
2022-12-12T08:46:18.076Z,27.85
2022-12-12T08:48:46.778Z,30.67
2022-12-12T08:51:15.098Z,24.55
2022-12-12T08:53:50.257Z,26.77
2022-12-12T08:56:18.848Z,33.78
2022-12-12T08:58:46.575Z,30.80
2022-12-12T09:01:19.661Z,36.67
2022-12-12T09:03:47.948Z,33.97
2022-12-12T09:06:15.945Z,27.05
2022-12-12T09:08:43.493Z,33.78
2022-12-12T09:11:11.396Z,26.33
2022-12-12T09:13:39.822Z,38.45
2022-12-12T09:16:08.951Z,46.53
2022-12-12T09:18:37.368Z,32.30
2022-12-12T09:21:05.550Z,22.75
2022-12-12T09:23:33.038Z,34.35
2022-12-12T09:26:05.911Z,27.42
2022-12-12T09:28:33.362Z,33.50
2022-12-12T09:31:00.682Z,31.98
2022-12-12T09:33:28.039Z,25.67
2022-12-12T09:36:03.770Z,28.15
2022-12-12T09:38:31.078Z,32.40
2022-12-12T09:41:00.684Z,27.67
2022-12-12T09:43:33.547Z,25.77
2022-12-12T09:46:04.070Z,27.40
2022-12-12T09:48:42.000Z,29.10
2022-12-12T09:51:11.542Z,24.52
2022-12-12T09:53:41.649Z,24.73
2022-12-12T09:56:56.302Z,19.88
2022-12-12T09:59:32.502Z,17.98
2022-12-12T10:02:23.328Z,22.73
2022-12-12T10:05:28.273Z,23.55
2022-12-12T10:08:22.214Z,21.15
2022-12-12T10:10:58.070Z,18.17
2022-12-12T10:13:28.910Z,18.38
2022-12-12T10:16:06.728Z,22.33
2022-12-12T10:18:39.900Z,26.00
2022-12-12T10:21:15.802Z,22.20
2022-12-12T10:23:50.843Z,18.08
2022-12-12T10:26:22.047Z,22.48
2022-12-12T10:29:00.085Z,21.88
2022-12-12T10:31:36.907Z,22.02
2022-12-12T10:34:29.120Z,20.40
2022-12-12T10:37:20.908Z,24.15
2022-12-12T10:40:14.052Z,23.13
2022-12-12T10:42:45.769Z,20.02
2022-12-12T10:45:54.070Z,21.48
2022-12-12T10:48:21.537Z,23.50
2022-12-12T10:50:50.223Z,21.42
2022-12-12T10:53:19.429Z,28.45
2022-12-12T10:55:59.074Z,23.30
2022-12-12T10:58:28.452Z,21.90
2022-12-12T11:01:10.180Z,23.05
2022-12-12T11:03:57.251Z,18.50
2022-12-12T11:06:36.222Z,21.90
2022-12-12T11:09:18.553Z,22.25
2022-12-12T11:11:57.488Z,21.35
2022-12-12T11:14:51.885Z,20.50
2022-12-12T11:17:26.563Z,19.85
2022-12-12T11:19:57.001Z,20.83
2022-12-12T11:22:24.925Z,21.55
2022-12-12T11:24:52.870Z,21.13
2022-12-12T11:27:31.319Z,23.33
2022-12-12T11:30:21.166Z,21.83
2022-12-12T11:32:52.049Z,25.50
2022-12-12T11:35:31.847Z,20.55
2022-12-12T11:38:06.393Z,27.05
2022-12-12T11:40:36.612Z,23.13
2022-12-12T11:43:22.321Z,25.52
2022-12-12T11:46:16.875Z,24.35
2022-12-12T11:48:56.955Z,26.08
2022-12-12T11:51:40.358Z,29.58
2022-12-12T11:54:12.031Z,32.65
2022-12-12T11:57:04.595Z,27.63
2022-12-12T11:59:46.857Z,33.22
2022-12-12T12:02:32.286Z,35.17
2022-12-12T12:05:02.306Z,37.20
2022-12-12T12:07:48.949Z,32.85
2022-12-12T12:10:26.225Z,31.73
2022-12-12T12:13:01.427Z,28.85
2022-12-12T12:15:32.298Z,33.33
2022-12-12T12:18:26.591Z,29.88
2022-12-12T12:21:27.026Z,32.22
2022-12-12T12:24:32.184Z,26.50
2022-12-12T12:27:08.444Z,31.48
2022-12-12T12:29:57.132Z,38.45
2022-12-12T12:32:53.339Z,28.92
2022-12-12T12:35:33.345Z,35.42
2022-12-12T12:38:13.060Z,29.98
2022-12-12T12:41:04.344Z,31.55
2022-12-12T12:44:09.717Z,32.45
2022-12-12T12:46:49.160Z,31.58
2022-12-12T12:49:31.476Z,35.03
2022-12-12T12:52:00.789Z,34.15
2022-12-12T12:54:42.142Z,37.13
2022-12-12T12:57:16.539Z,36.03
2022-12-12T12:59:51.450Z,37.95
2022-12-12T13:02:59.087Z,38.30
2022-12-12T13:05:51.615Z,45.38
2022-12-12T13:08:46.557Z,39.65
2022-12-12T13:11:36.585Z,37.08
2022-12-12T13:14:16.603Z,35.42
2022-12-12T13:16:45.525Z,39.00
2022-12-12T13:19:36.061Z,37.92
2022-12-12T13:22:38.945Z,38.83
2022-12-12T13:25:39.312Z,42.70
2022-12-12T13:28:21.560Z,43.42
2022-12-12T13:31:12.753Z,41.85
2022-12-12T13:33:54.382Z,43.53
2022-12-12T13:36:36.736Z,41.15
2022-12-12T13:39:06.574Z,41.80
2022-12-12T13:42:13.121Z,41.53
2022-12-12T13:44:46.012Z,37.28
2022-12-12T13:47:22.534Z,34.95
2022-12-12T13:49:53.807Z,30.35
2022-12-12T13:52:28.599Z,41.33
2022-12-12T13:55:19.000Z,40.03
2022-12-12T13:58:02.639Z,40.97
2022-12-12T14:00:35.238Z,43.67
2022-12-12T14:03:28.887Z,38.80
2022-12-12T14:06:10.699Z,48.83
2022-12-12T14:08:46.278Z,41.97
2022-12-12T14:11:32.228Z,42.05
2022-12-12T14:14:19.321Z,50.45
2022-12-12T14:16:55.453Z,45.83
2022-12-12T14:19:29.361Z,50.83
2022-12-12T14:21:56.891Z,48.45
2022-12-12T14:24:33.013Z,53.67
2022-12-12T14:27:04.794Z,48.87
2022-12-12T14:29:40.476Z,52.47
2022-12-12T14:32:13.753Z,51.55
2022-12-12T14:34:41.453Z,50.45
2022-12-12T14:37:39.161Z,55.08
2022-12-12T14:40:21.379Z,54.33
2022-12-12T14:43:19.569Z,54.05
2022-12-12T14:45:49.572Z,59.53
2022-12-12T14:48:19.832Z,55.55
2022-12-12T14:51:01.207Z,50.47
2022-12-12T14:53:56.169Z,54.33
2022-12-12T14:56:29.532Z,54.63
2022-12-12T14:59:00.760Z,56.20
2022-12-12T15:01:36.065Z,62.70
2022-12-12T15:04:11.054Z,50.08
2022-12-12T15:06:43.098Z,56.03
2022-12-12T15:09:20.074Z,61.78
2022-12-12T15:11:48.621Z,49.05
2022-12-12T15:14:22.042Z,55.65
2022-12-12T15:17:07.120Z,57.25
2022-12-12T15:19:41.720Z,60.60
2022-12-12T15:22:29.893Z,62.58
2022-12-12T15:24:59.869Z,71.05
2022-12-12T15:27:34.021Z,66.03
2022-12-12T15:30:03.457Z,62.75
2022-12-12T15:32:30.814Z,71.47
2022-12-12T15:35:07.561Z,71.53
2022-12-12T15:37:36.741Z,61.20
2022-12-12T15:40:06.763Z,57.08
2022-12-12T15:42:34.375Z,68.38
2022-12-12T15:45:02.989Z,63.05
2022-12-12T15:47:30.542Z,76.18
2022-12-12T15:50:15.163Z,62.08
2022-12-12T15:52:42.876Z,61.00
2022-12-12T15:55:30.575Z,70.00
2022-12-12T15:57:58.468Z,67.50
2022-12-12T16:00:33.399Z,69.97
2022-12-12T16:03:23.892Z,61.08
2022-12-12T16:06:04.233Z,57.10
2022-12-12T16:08:33.356Z,64.05
2022-12-12T16:11:04.165Z,73.18
2022-12-12T16:13:40.769Z,78.22
2022-12-12T16:16:50.145Z,57.22
2022-12-12T16:19:35.832Z,56.30
2022-12-12T16:22:28.041Z,59.97
2022-12-12T16:25:09.297Z,66.43
2022-12-12T16:27:36.608Z,55.40
2022-12-12T16:30:05.147Z,55.95
2022-12-12T16:32:32.441Z,59.72
2022-12-12T16:34:59.888Z,62.30
2022-12-12T16:37:27.354Z,61.97
2022-12-12T16:39:54.918Z,65.30
2022-12-12T16:42:24.062Z,61.33
2022-12-12T16:44:51.620Z,73.70
2022-12-12T16:47:22.016Z,50.15
2022-12-12T16:49:49.814Z,60.25
2022-12-12T16:52:18.909Z,61.88
2022-12-12T16:54:52.828Z,65.55
2022-12-12T16:57:21.977Z,58.83
2022-12-12T16:59:49.416Z,55.42
2022-12-12T17:02:22.063Z,60.72
2022-12-12T17:04:50.303Z,55.58
2022-12-12T17:07:17.869Z,57.00
2022-12-12T17:09:45.204Z,59.67
2022-12-12T17:12:13.201Z,50.63
2022-12-12T17:14:40.653Z,55.80
2022-12-12T17:17:07.983Z,57.20
2022-12-12T17:19:35.273Z,62.22
2022-12-12T17:22:03.190Z,57.92
2022-12-12T17:24:31.048Z,58.85
2022-12-12T17:26:58.571Z,59.13
2022-12-12T17:29:26.024Z,51.15
2022-12-12T17:31:53.350Z,58.63
2022-12-12T17:34:20.674Z,58.75
2022-12-12T17:36:48.404Z,61.28
2022-12-12T17:39:15.720Z,57.17
2022-12-12T17:41:42.987Z,52.00
2022-12-12T17:44:10.293Z,51.00
2022-12-12T17:46:37.612Z,56.42
2022-12-12T17:49:05.143Z,52.72
2022-12-12T17:51:32.534Z,61.72
2022-12-12T17:54:00.222Z,64.70
2022-12-12T17:56:27.709Z,62.00
2022-12-12T17:58:55.477Z,55.03
2022-12-12T18:01:29.263Z,52.10
2022-12-12T18:03:57.829Z,57.55
2022-12-12T18:06:26.452Z,63.97
2022-12-12T18:08:54.557Z,56.03
2022-12-12T18:11:26.839Z,55.65
2022-12-12T18:14:06.798Z,60.85
2022-12-12T18:16:35.923Z,64.40
2022-12-12T18:19:04.109Z,58.63
2022-12-12T18:24:21.756Z,59.42
2022-12-12T18:26:53.880Z,52.28
2022-12-12T18:29:22.125Z,59.03
2022-12-12T18:31:51.869Z,52.58
2022-12-12T18:34:19.585Z,50.50
2022-12-12T18:36:46.906Z,53.20
2022-12-12T18:39:14.251Z,60.70
2022-12-12T18:41:41.560Z,71.00
2022-12-12T18:44:12.941Z,60.00
2022-12-12T18:46:43.446Z,49.78
2022-12-12T18:49:15.844Z,45.50
2022-12-12T18:51:45.377Z,39.80
2022-12-12T18:54:15.979Z,47.38
2022-12-12T18:56:46.004Z,42.03
2022-12-12T18:59:14.245Z,44.85
2022-12-12T19:01:41.733Z,43.38
2022-12-12T19:04:12.606Z,50.40
2022-12-12T19:06:43.100Z,44.45
2022-12-12T19:09:16.216Z,43.35
2022-12-12T19:11:44.390Z,47.45
2022-12-12T19:14:13.422Z,49.38
2022-12-12T19:16:42.293Z,48.85
2022-12-12T19:19:10.342Z,47.28
2022-12-12T19:21:38.704Z,49.80
2022-12-12T19:24:09.175Z,45.65
2022-12-12T19:26:38.352Z,46.15
2022-12-12T19:29:09.929Z,41.45
2022-12-12T19:31:37.532Z,45.78
2022-12-12T19:34:06.662Z,44.83
2022-12-12T19:36:35.705Z,43.10
2022-12-12T19:39:05.057Z,40.35
2022-12-12T19:41:32.945Z,42.75
2022-12-12T19:44:01.691Z,47.72
2022-12-12T19:46:30.968Z,44.13
2022-12-12T19:49:03.873Z,45.25
2022-12-12T19:51:32.799Z,43.55
2022-12-12T19:54:01.619Z,50.67
2022-12-12T19:56:31.503Z,58.58
2022-12-12T19:58:59.665Z,46.90
2022-12-12T20:01:32.190Z,45.45
2022-12-12T20:04:05.230Z,44.10
2022-12-12T20:06:40.901Z,47.72
2022-12-12T20:09:13.539Z,49.53
2022-12-12T20:11:41.317Z,48.45
2022-12-12T20:14:16.570Z,47.50
2022-12-12T20:16:44.512Z,40.10
2022-12-12T20:19:13.134Z,49.88
2022-12-12T20:22:00.283Z,41.78
2022-12-12T20:24:28.999Z,43.95
2022-12-12T20:26:56.980Z,42.75
2022-12-12T20:29:24.261Z,38.75
2022-12-12T20:31:51.991Z,36.17
2022-12-12T20:34:24.470Z,41.88
2022-12-12T20:36:52.568Z,37.22
2022-12-12T20:39:21.937Z,47.47
2022-12-12T20:41:50.580Z,40.72
2022-12-12T20:44:17.851Z,41.25
2022-12-12T20:46:46.379Z,41.80
2022-12-12T20:49:17.364Z,41.88
2022-12-12T20:52:00.651Z,43.13
2022-12-12T20:54:29.177Z,36.60
2022-12-12T20:56:58.383Z,39.78
2022-12-12T20:59:26.655Z,37.45
2022-12-12T21:01:54.525Z,46.33
2022-12-12T21:04:22.424Z,47.72
2022-12-12T21:06:51.542Z,43.40
2022-12-12T21:09:24.795Z,41.25
2022-12-12T21:11:54.248Z,40.78
2022-12-12T21:14:21.803Z,38.10
2022-12-12T21:16:49.122Z,39.58
2022-12-12T21:19:18.703Z,42.63
2022-12-12T21:21:46.483Z,45.53
2022-12-12T21:24:16.772Z,40.05
2022-12-12T21:26:44.787Z,41.03
2022-12-12T21:29:12.196Z,43.33
2022-12-12T21:31:50.371Z,45.63
2022-12-12T21:34:21.833Z,45.80
2022-12-12T21:36:56.075Z,39.58
2022-12-12T21:39:26.700Z,42.63
2022-12-12T21:41:54.473Z,36.65
2022-12-12T21:44:22.122Z,42.15
2022-12-12T21:46:49.640Z,37.63
2022-12-12T21:49:26.514Z,41.28
2022-12-12T21:51:56.268Z,38.17
2022-12-12T21:54:24.715Z,39.40
2022-12-12T21:56:53.180Z,44.97
2022-12-12T21:59:20.517Z,43.40
2022-12-12T22:01:47.905Z,40.22
2022-12-12T22:04:16.051Z,44.92
2022-12-12T22:06:44.898Z,40.00
2022-12-12T22:12:31.608Z,44.33
2022-12-12T22:14:58.945Z,41.45
2022-12-12T22:17:26.280Z,41.88
2022-12-12T22:19:53.751Z,42.90
2022-12-12T22:22:21.498Z,44.47
2022-12-12T22:24:48.776Z,45.72
2022-12-12T22:27:16.185Z,44.55
2022-12-12T22:29:44.000Z,43.63
2022-12-12T22:32:11.264Z,44.17
2022-12-12T22:34:38.614Z,43.28
2022-12-12T22:37:05.928Z,39.97
2022-12-12T22:39:33.333Z,52.67
2022-12-12T22:42:00.824Z,48.45
2022-12-12T22:44:28.250Z,43.90
2022-12-12T22:46:55.974Z,50.33
2022-12-12T22:49:26.111Z,46.65
2022-12-12T22:51:55.783Z,42.72
2022-12-12T22:54:23.242Z,44.97
2022-12-12T22:56:50.738Z,50.40
2022-12-12T22:59:18.092Z,49.28
2022-12-12T23:01:45.351Z,46.03
2022-12-12T23:04:13.776Z,51.83
2022-12-12T23:06:42.421Z,49.00
2022-12-12T23:09:18.724Z,44.33
2022-12-12T23:11:46.365Z,49.67
2022-12-12T23:14:17.357Z,52.63
2022-12-12T23:16:45.314Z,45.85
2022-12-12T23:19:15.031Z,52.72
2022-12-12T23:21:42.740Z,45.35
2022-12-12T23:24:10.282Z,51.47
2022-12-12T23:26:38.598Z,48.08
2022-12-12T23:29:09.132Z,52.55
2022-12-12T23:31:37.908Z,51.67
2022-12-12T23:34:08.800Z,46.22
2022-12-12T23:36:36.273Z,46.92
2022-12-12T23:39:07.940Z,42.70
2022-12-12T23:41:36.539Z,46.17
2022-12-12T23:44:05.085Z,48.88
2022-12-12T23:46:32.857Z,52.38
2022-12-12T23:49:06.312Z,61.13
2022-12-12T23:51:37.283Z,55.42
2022-12-12T23:54:06.573Z,46.45
2022-12-12T23:56:34.054Z,46.97
2022-12-12T23:59:01.884Z,54.90
